sensor_id;sensor_type;location;lat;lon;timestamp;temperature;humidity
28159;DHT22;15447;50.828;4.406;2023-11-19T06:31:19;11.40;99.90
28159;DHT22;15447;50.828;4.406;2023-11-19T06:33:46;11.40;99.90
28159;DHT22;15447;50.828;4.406;2023-11-19T06:36:14;11.40;99.90
28159;DHT22;15447;50.828;4.406;2023-11-19T06:38:42;11.40;99.90
28159;DHT22;15447;50.828;4.406;2023-11-19T06:41:08;11.40;99.90
28159;DHT22;15447;50.828;4.406;2023-11-19T06:43:35;11.30;99.90
28159;DHT22;15447;50.828;4.406;2023-11-19T06:46:01;11.30;99.90
28159;DHT22;15447;50.828;4.406;2023-11-19T06:48:27;11.30;99.90
28159;DHT22;15447;50.828;4.406;2023-11-19T06:50:55;11.40;99.90
28159;DHT22;15447;50.828;4.406;2023-11-19T06:53:21;11.40;99.90
28159;DHT22;15447;50.828;4.406;2023-11-19T06:55:46;11.40;99.90
28159;DHT22;15447;50.828;4.406;2023-11-19T06:58:12;11.30;99.90
28159;DHT22;15447;50.828;4.406;2023-11-19T07:00:38;11.30;99.90
28159;DHT22;15447;50.828;4.406;2023-11-19T07:03:03;11.30;99.90
28159;DHT22;15447;50.828;4.406;2023-11-19T07:05:31;11.30;99.90
28159;DHT22;15447;50.828;4.406;2023-11-19T07:08:01;11.30;99.90
28159;DHT22;15447;50.828;4.406;2023-11-19T07:10:26;11.30;99.90
28159;DHT22;15447;50.828;4.406;2023-11-19T07:12:52;11.30;99.90
28159;DHT22;15447;50.828;4.406;2023-11-19T07:15:18;11.30;99.90
28159;DHT22;15447;50.828;4.406;2023-11-19T07:17:44;11.30;99.90
28159;DHT22;15447;50.828;4.406;2023-11-19T07:20:11;11.40;99.90
28159;DHT22;15447;50.828;4.406;2023-11-19T07:22:38;11.40;99.90
28159;DHT22;15447;50.828;4.406;2023-11-19T07:25:05;11.50;99.90
28159;DHT22;15447;50.828;4.406;2023-11-19T07:27:31;11.50;99.90
28159;DHT22;15447;50.828;4.406;2023-11-19T07:29:56;11.50;99.90
28159;DHT22;15447;50.828;4.406;2023-11-19T07:32:23;11.50;99.90
28159;DHT22;15447;50.828;4.406;2023-11-19T07:34:48;11.60;99.90
28159;DHT22;15447;50.828;4.406;2023-11-19T07:37:14;11.60;99.90
28159;DHT22;15447;50.828;4.406;2023-11-19T07:39:40;11.60;99.90
28159;DHT22;15447;50.828;4.406;2023-11-19T07:42:06;11.60;99.90
28159;DHT22;15447;50.828;4.406;2023-11-19T07:44:32;11.70;99.90
28159;DHT22;15447;50.828;4.406;2023-11-19T07:46:58;11.90;99.90
28159;DHT22;15447;50.828;4.406;2023-11-19T07:49:24;11.90;99.90
28159;DHT22;15447;50.828;4.406;2023-11-19T07:51:49;12.00;99.90
28159;DHT22;15447;50.828;4.406;2023-11-19T07:54:15;12.10;99.90
28159;DHT22;15447;50.828;4.406;2023-11-19T07:56:41;12.20;99.90
28159;DHT22;15447;50.828;4.406;2023-11-19T07:59:09;12.40;99.90
28159;DHT22;15447;50.828;4.406;2023-11-19T08:01:38;12.50;99.90
28159;DHT22;15447;50.828;4.406;2023-11-19T08:04:06;12.60;99.90
28159;DHT22;15447;50.828;4.406;2023-11-19T08:06:32;12.80;99.90
28159;DHT22;15447;50.828;4.406;2023-11-19T08:08:58;12.80;99.90
28159;DHT22;15447;50.828;4.406;2023-11-19T08:11:24;12.90;99.90
28159;DHT22;15447;50.828;4.406;2023-11-19T08:13:53;13.10;99.90
28159;DHT22;15447;50.828;4.406;2023-11-19T08:16:19;13.40;99.90
28159;DHT22;15447;50.828;4.406;2023-11-19T08:18:45;13.60;99.90
28159;DHT22;15447;50.828;4.406;2023-11-19T08:21:11;13.90;99.90
28159;DHT22;15447;50.828;4.406;2023-11-19T08:23:37;14.10;99.90
28159;DHT22;15447;50.828;4.406;2023-11-19T08:26:04;14.30;99.90
28159;DHT22;15447;50.828;4.406;2023-11-19T08:28:37;14.50;99.90
28159;DHT22;15447;50.828;4.406;2023-11-19T08:31:04;14.80;99.90
28159;DHT22;15447;50.828;4.406;2023-11-19T08:33:32;15.00;99.90
28159;DHT22;15447;50.828;4.406;2023-11-19T08:35:58;15.10;99.90
28159;DHT22;15447;50.828;4.406;2023-11-19T08:38:27;14.90;99.90
28159;DHT22;15447;50.828;4.406;2023-11-19T08:41:00;14.90;99.90
28159;DHT22;15447;50.828;4.406;2023-11-19T08:43:28;14.40;99.90
28159;DHT22;15447;50.828;4.406;2023-11-19T08:45:57;13.90;99.90
28159;DHT22;15447;50.828;4.406;2023-11-19T08:48:23;13.40;99.90
28159;DHT22;15447;50.828;4.406;2023-11-19T08:50:52;13.00;99.90
28159;DHT22;15447;50.828;4.406;2023-11-19T08:53:17;12.90;99.90
28159;DHT22;15447;50.828;4.406;2023-11-19T08:55:46;12.70;99.90
28159;DHT22;15447;50.828;4.406;2023-11-19T08:58:11;12.60;99.90
28159;DHT22;15447;50.828;4.406;2023-11-19T09:00:37;12.60;99.90
28159;DHT22;15447;50.828;4.406;2023-11-19T09:03:03;12.80;99.90
28159;DHT22;15447;50.828;4.406;2023-11-19T09:05:29;13.10;99.90
28159;DHT22;15447;50.828;4.406;2023-11-19T09:07:55;13.20;99.90
28159;DHT22;15447;50.828;4.406;2023-11-19T09:10:23;13.30;99.90
28159;DHT22;15447;50.828;4.406;2023-11-19T09:12:49;13.60;99.90
28159;DHT22;15447;50.828;4.406;2023-11-19T09:15:17;14.10;99.90
28159;DHT22;15447;50.828;4.406;2023-11-19T09:17:43;14.20;99.90
28159;DHT22;15447;50.828;4.406;2023-11-19T09:22:41;13.80;99.90
28159;DHT22;15447;50.828;4.406;2023-11-19T09:25:09;13.70;99.90
28159;DHT22;15447;50.828;4.406;2023-11-19T09:27:35;13.50;99.90
28159;DHT22;15447;50.828;4.406;2023-11-19T09:30:00;13.60;99.90
28159;DHT22;15447;50.828;4.406;2023-11-19T09:32:26;14.30;99.90
28159;DHT22;15447;50.828;4.406;2023-11-19T09:34:54;14.90;99.90
28159;DHT22;15447;50.828;4.406;2023-11-19T09:37:20;15.10;99.90
28159;DHT22;15447;50.828;4.406;2023-11-19T09:39:51;15.20;99.90
28159;DHT22;15447;50.828;4.406;2023-11-19T09:42:17;15.50;99.90
28159;DHT22;15447;50.828;4.406;2023-11-19T09:44:43;15.90;99.90
28159;DHT22;15447;50.828;4.406;2023-11-19T09:47:11;16.00;99.90
28159;DHT22;15447;50.828;4.406;2023-11-19T09:49:41;16.00;99.90
28159;DHT22;15447;50.828;4.406;2023-11-19T09:52:07;16.40;99.90
28159;DHT22;15447;50.828;4.406;2023-11-19T09:54:35;16.40;99.90
28159;DHT22;15447;50.828;4.406;2023-11-19T09:57:02;16.40;99.90
28159;DHT22;15447;50.828;4.406;2023-11-19T09:59:33;16.10;99.90
28159;DHT22;15447;50.828;4.406;2023-11-19T10:01:59;16.10;99.90
28159;DHT22;15447;50.828;4.406;2023-11-19T10:04:25;16.50;99.90
28159;DHT22;15447;50.828;4.406;2023-11-19T10:06:54;17.00;99.90
28159;DHT22;15447;50.828;4.406;2023-11-19T10:09:20;17.00;99.90
28159;DHT22;15447;50.828;4.406;2023-11-19T10:11:46;17.10;99.90
28159;DHT22;15447;50.828;4.406;2023-11-19T10:14:11;17.30;99.90
28159;DHT22;15447;50.828;4.406;2023-11-19T10:16:38;17.30;99.90
28159;DHT22;15447;50.828;4.406;2023-11-19T10:19:04;17.20;99.90
28159;DHT22;15447;50.828;4.406;2023-11-19T10:21:32;17.00;99.90
28159;DHT22;15447;50.828;4.406;2023-11-19T10:23:59;16.90;99.90
28159;DHT22;15447;50.828;4.406;2023-11-19T10:26:27;16.80;99.90
28159;DHT22;15447;50.828;4.406;2023-11-19T10:28:55;16.60;99.90
28159;DHT22;15447;50.828;4.406;2023-11-19T10:31:21;16.70;99.90
28159;DHT22;15447;50.828;4.406;2023-11-19T10:33:53;16.90;99.90
28159;DHT22;15447;50.828;4.406;2023-11-19T10:36:19;16.80;99.90
28159;DHT22;15447;50.828;4.406;2023-11-19T10:38:55;16.50;99.90
28159;DHT22;15447;50.828;4.406;2023-11-19T10:41:31;16.00;99.90
28159;DHT22;15447;50.828;4.406;2023-11-19T10:43:58;15.80;99.90
28159;DHT22;15447;50.828;4.406;2023-11-19T10:46:36;15.60;99.90
28159;DHT22;15447;50.828;4.406;2023-11-19T10:49:03;15.40;99.90
28159;DHT22;15447;50.828;4.406;2023-11-19T10:51:29;15.20;99.90
28159;DHT22;15447;50.828;4.406;2023-11-19T10:54:02;15.20;99.90
28159;DHT22;15447;50.828;4.406;2023-11-19T10:56:30;15.20;99.90
28159;DHT22;15447;50.828;4.406;2023-11-19T10:58:56;15.40;99.90
28159;DHT22;15447;50.828;4.406;2023-11-19T11:01:27;16.00;99.90
28159;DHT22;15447;50.828;4.406;2023-11-19T11:03:59;16.20;99.90
28159;DHT22;15447;50.828;4.406;2023-11-19T11:06:27;15.90;99.90
28159;DHT22;15447;50.828;4.406;2023-11-19T11:08:53;15.90;99.90
28159;DHT22;15447;50.828;4.406;2023-11-19T11:11:19;15.60;99.90
28159;DHT22;15447;50.828;4.406;2023-11-19T11:13:47;15.40;99.90
28159;DHT22;15447;50.828;4.406;2023-11-19T11:16:15;15.10;99.90
28159;DHT22;15447;50.828;4.406;2023-11-19T11:18:45;14.80;99.90
28159;DHT22;15447;50.828;4.406;2023-11-19T11:21:15;14.70;99.90
28159;DHT22;15447;50.828;4.406;2023-11-19T11:24:48;14.50;99.90
28159;DHT22;15447;50.828;4.406;2023-11-19T11:35:41;14.40;99.90
28159;DHT22;15447;50.828;4.406;2023-11-19T11:38:10;14.70;99.90
28159;DHT22;15447;50.828;4.406;2023-11-19T11:40:36;15.20;99.90
28159;DHT22;15447;50.828;4.406;2023-11-19T11:43:02;15.60;99.90
28159;DHT22;15447;50.828;4.406;2023-11-19T11:45:40;16.10;99.90
28159;DHT22;15447;50.828;4.406;2023-11-19T11:48:22;16.80;99.90
28159;DHT22;15447;50.828;4.406;2023-11-19T11:50:51;17.30;99.90
28159;DHT22;15447;50.828;4.406;2023-11-19T11:53:18;17.70;99.90
28159;DHT22;15447;50.828;4.406;2023-11-19T11:58:27;18.50;99.90
28159;DHT22;15447;50.828;4.406;2023-11-19T12:00:53;18.70;99.90
28159;DHT22;15447;50.828;4.406;2023-11-19T12:03:22;18.80;99.90
28159;DHT22;15447;50.828;4.406;2023-11-19T12:05:49;18.50;99.90
28159;DHT22;15447;50.828;4.406;2023-11-19T12:08:18;17.80;99.90
28159;DHT22;15447;50.828;4.406;2023-11-19T12:10:51;17.20;99.90
28159;DHT22;15447;50.828;4.406;2023-11-19T12:13:18;16.70;99.90
28159;DHT22;15447;50.828;4.406;2023-11-19T12:18:27;15.80;99.90
28159;DHT22;15447;50.828;4.406;2023-11-19T12:20:54;15.60;99.90
28159;DHT22;15447;50.828;4.406;2023-11-19T12:23:20;15.40;99.90
28159;DHT22;15447;50.828;4.406;2023-11-19T12:25:46;15.30;99.90
28159;DHT22;15447;50.828;4.406;2023-11-19T12:28:13;15.10;99.90
28159;DHT22;15447;50.828;4.406;2023-11-19T12:30:39;14.80;99.90
28159;DHT22;15447;50.828;4.406;2023-11-19T12:33:09;14.70;99.90
28159;DHT22;15447;50.828;4.406;2023-11-19T12:35:45;14.50;99.90
28159;DHT22;15447;50.828;4.406;2023-11-19T12:38:21;14.30;99.90
28159;DHT22;15447;50.828;4.406;2023-11-19T12:40:47;14.10;99.90
28159;DHT22;15447;50.828;4.406;2023-11-19T12:43:22;14.20;99.90
28159;DHT22;15447;50.828;4.406;2023-11-19T12:45:48;14.20;99.90
28159;DHT22;15447;50.828;4.406;2023-11-19T12:48:13;14.30;99.90
28159;DHT22;15447;50.828;4.406;2023-11-19T12:50:58;14.30;99.90
28159;DHT22;15447;50.828;4.406;2023-11-19T12:53:27;14.40;99.90
28159;DHT22;15447;50.828;4.406;2023-11-19T12:55:55;14.50;99.90
28159;DHT22;15447;50.828;4.406;2023-11-19T12:58:36;14.60;99.90
28159;DHT22;15447;50.828;4.406;2023-11-19T13:01:06;14.60;99.90
28159;DHT22;15447;50.828;4.406;2023-11-19T13:03:36;14.50;99.90
28159;DHT22;15447;50.828;4.406;2023-11-19T13:06:08;14.40;99.90
28159;DHT22;15447;50.828;4.406;2023-11-19T13:08:41;14.40;99.90
28159;DHT22;15447;50.828;4.406;2023-11-19T13:11:09;14.40;99.90
28159;DHT22;15447;50.828;4.406;2023-11-19T13:14:03;14.30;99.90
28159;DHT22;15447;50.828;4.406;2023-11-19T13:16:36;14.40;99.90
28159;DHT22;15447;50.828;4.406;2023-11-19T13:19:02;14.30;99.90
28159;DHT22;15447;50.828;4.406;2023-11-19T13:21:28;14.30;99.90
28159;DHT22;15447;50.828;4.406;2023-11-19T13:23:55;14.30;99.90
28159;DHT22;15447;50.828;4.406;2023-11-19T13:26:21;14.50;99.90
28159;DHT22;15447;50.828;4.406;2023-11-19T13:28:46;14.50;99.90
28159;DHT22;15447;50.828;4.406;2023-11-19T13:31:12;14.40;99.90
28159;DHT22;15447;50.828;4.406;2023-11-19T13:33:38;14.30;99.90
28159;DHT22;15447;50.828;4.406;2023-11-19T13:36:04;14.30;99.90
28159;DHT22;15447;50.828;4.406;2023-11-19T13:38:36;14.40;99.90
28159;DHT22;15447;50.828;4.406;2023-11-19T13:41:05;14.30;99.90
28159;DHT22;15447;50.828;4.406;2023-11-19T13:43:31;14.00;99.90
28159;DHT22;15447;50.828;4.406;2023-11-19T13:45:57;14.00;99.90
28159;DHT22;15447;50.828;4.406;2023-11-19T13:48:26;14.00;99.90
28159;DHT22;15447;50.828;4.406;2023-11-19T13:50:55;14.00;99.90
28159;DHT22;15447;50.828;4.406;2023-11-19T13:53:21;14.00;99.90
28159;DHT22;15447;50.828;4.406;2023-11-19T13:55:47;13.90;99.90
28159;DHT22;15447;50.828;4.406;2023-11-19T13:58:15;13.70;99.90
28159;DHT22;15447;50.828;4.406;2023-11-19T14:00:41;13.70;99.90
28159;DHT22;15447;50.828;4.406;2023-11-19T14:03:08;13.60;99.90
28159;DHT22;15447;50.828;4.406;2023-11-19T14:05:35;13.70;99.90
28159;DHT22;15447;50.828;4.406;2023-11-19T14:08:01;13.60;99.90
28159;DHT22;15447;50.828;4.406;2023-11-19T14:10:27;13.60;99.90
28159;DHT22;15447;50.828;4.406;2023-11-19T14:12:52;13.60;99.90
28159;DHT22;15447;50.828;4.406;2023-11-19T14:15:18;13.60;99.90
28159;DHT22;15447;50.828;4.406;2023-11-19T14:17:43;13.70;99.90
28159;DHT22;15447;50.828;4.406;2023-11-19T14:20:09;13.70;99.90
28159;DHT22;15447;50.828;4.406;2023-11-19T14:22:45;13.70;99.90
28159;DHT22;15447;50.828;4.406;2023-11-19T14:25:14;13.60;99.90
28159;DHT22;15447;50.828;4.406;2023-11-19T14:27:41;13.70;99.90
28159;DHT22;15447;50.828;4.406;2023-11-19T14:30:09;13.70;99.90
28159;DHT22;15447;50.828;4.406;2023-11-19T14:32:42;13.60;99.90
28159;DHT22;15447;50.828;4.406;2023-11-19T14:35:10;13.60;99.90
28159;DHT22;15447;50.828;4.406;2023-11-19T14:37:35;13.40;99.90
28159;DHT22;15447;50.828;4.406;2023-11-19T14:40:01;13.20;99.90
28159;DHT22;15447;50.828;4.406;2023-11-19T14:42:30;13.10;99.90
28159;DHT22;15447;50.828;4.406;2023-11-19T14:44:55;13.10;99.90
28159;DHT22;15447;50.828;4.406;2023-11-19T14:47:22;13.10;99.90
28159;DHT22;15447;50.828;4.406;2023-11-19T14:49:47;13.10;99.90
28159;DHT22;15447;50.828;4.406;2023-11-19T14:52:13;13.00;99.90
28159;DHT22;15447;50.828;4.406;2023-11-19T14:54:39;13.10;99.90
28159;DHT22;15447;50.828;4.406;2023-11-19T14:57:05;13.00;99.90
28159;DHT22;15447;50.828;4.406;2023-11-19T14:59:33;13.10;99.90
28159;DHT22;15447;50.828;4.406;2023-11-19T15:01:59;13.10;99.90
28159;DHT22;15447;50.828;4.406;2023-11-19T15:04:26;13.20;99.90
28159;DHT22;15447;50.828;4.406;2023-11-19T15:06:52;13.20;99.90
28159;DHT22;15447;50.828;4.406;2023-11-19T15:09:17;13.10;99.90
28159;DHT22;15447;50.828;4.406;2023-11-19T15:11:46;13.10;99.90
28159;DHT22;15447;50.828;4.406;2023-11-19T15:14:14;13.00;99.90
28159;DHT22;15447;50.828;4.406;2023-11-19T15:16:42;13.10;99.90
28159;DHT22;15447;50.828;4.406;2023-11-19T15:19:08;13.00;99.90
28159;DHT22;15447;50.828;4.406;2023-11-19T15:21:34;13.10;99.90
28159;DHT22;15447;50.828;4.406;2023-11-19T15:24:01;13.10;99.90
28159;DHT22;15447;50.828;4.406;2023-11-19T15:26:30;13.20;99.90
28159;DHT22;15447;50.828;4.406;2023-11-19T15:28:55;13.20;99.90
28159;DHT22;15447;50.828;4.406;2023-11-19T15:31:23;13.10;99.90
28159;DHT22;15447;50.828;4.406;2023-11-19T15:33:48;13.20;99.90
28159;DHT22;15447;50.828;4.406;2023-11-19T15:36:14;13.10;99.90
28159;DHT22;15447;50.828;4.406;2023-11-19T15:38:40;13.20;99.90
28159;DHT22;15447;50.828;4.406;2023-11-19T15:41:06;13.20;99.90
28159;DHT22;15447;50.828;4.406;2023-11-19T15:43:33;13.20;99.90
28159;DHT22;15447;50.828;4.406;2023-11-19T15:45:59;13.30;99.90
28159;DHT22;15447;50.828;4.406;2023-11-19T15:48:24;13.30;99.90
28159;DHT22;15447;50.828;4.406;2023-11-19T15:50:51;13.30;99.90
28159;DHT22;15447;50.828;4.406;2023-11-19T15:53:17;13.20;99.90
28159;DHT22;15447;50.828;4.406;2023-11-19T15:55:44;13.20;99.90
28159;DHT22;15447;50.828;4.406;2023-11-19T15:58:10;13.20;99.90
28159;DHT22;15447;50.828;4.406;2023-11-19T16:00:35;13.20;99.90
28159;DHT22;15447;50.828;4.406;2023-11-19T16:03:01;13.10;99.90
28159;DHT22;15447;50.828;4.406;2023-11-19T16:05:26;13.10;99.90
28159;DHT22;15447;50.828;4.406;2023-11-19T16:07:52;13.00;99.90
28159;DHT22;15447;50.828;4.406;2023-11-19T16:10:18;12.90;99.90
28159;DHT22;15447;50.828;4.406;2023-11-19T16:12:45;12.80;99.90
28159;DHT22;15447;50.828;4.406;2023-11-19T16:15:11;12.80;99.90
28159;DHT22;15447;50.828;4.406;2023-11-19T16:17:40;12.80;99.90
28159;DHT22;15447;50.828;4.406;2023-11-19T16:20:07;12.70;99.90
28159;DHT22;15447;50.828;4.406;2023-11-19T16:22:38;12.70;99.90
28159;DHT22;15447;50.828;4.406;2023-11-19T16:25:04;12.70;99.90
28159;DHT22;15447;50.828;4.406;2023-11-19T16:27:30;12.70;99.90
28159;DHT22;15447;50.828;4.406;2023-11-19T16:29:55;12.60;99.90
28159;DHT22;15447;50.828;4.406;2023-11-19T16:32:21;12.60;99.90
28159;DHT22;15447;50.828;4.406;2023-11-19T16:34:47;12.60;99.90
28159;DHT22;15447;50.828;4.406;2023-11-19T16:37:15;12.50;99.90
28159;DHT22;15447;50.828;4.406;2023-11-19T16:39:41;12.40;99.90
28159;DHT22;15447;50.828;4.406;2023-11-19T16:42:08;12.20;99.90
28159;DHT22;15447;50.828;4.406;2023-11-19T16:44:33;12.10;99.90
28159;DHT22;15447;50.828;4.406;2023-11-19T16:46:59;12.00;99.90
28159;DHT22;15447;50.828;4.406;2023-11-19T16:49:25;12.00;99.90
28159;DHT22;15447;50.828;4.406;2023-11-19T16:51:51;11.90;99.90
28159;DHT22;15447;50.828;4.406;2023-11-19T16:54:18;11.90;99.90
28159;DHT22;15447;50.828;4.406;2023-11-19T16:56:44;11.90;99.90
28159;DHT22;15447;50.828;4.406;2023-11-19T16:59:10;11.90;99.90
28159;DHT22;15447;50.828;4.406;2023-11-19T17:01:36;11.90;99.90
28159;DHT22;15447;50.828;4.406;2023-11-19T17:04:03;11.90;99.90
28159;DHT22;15447;50.828;4.406;2023-11-19T17:06:29;11.90;99.90
28159;DHT22;15447;50.828;4.406;2023-11-19T17:08:55;11.90;99.90
28159;DHT22;15447;50.828;4.406;2023-11-19T17:11:21;12.00;99.90
28159;DHT22;15447;50.828;4.406;2023-11-19T17:13:47;11.90;99.90
28159;DHT22;15447;50.828;4.406;2023-11-19T17:16:12;11.90;99.90
28159;DHT22;15447;50.828;4.406;2023-11-19T17:18:38;11.90;99.90
28159;DHT22;15447;50.828;4.406;2023-11-19T17:21:05;11.90;99.90
28159;DHT22;15447;50.828;4.406;2023-11-19T17:23:33;11.80;99.90
28159;DHT22;15447;50.828;4.406;2023-11-19T17:25:59;11.90;99.90
28159;DHT22;15447;50.828;4.406;2023-11-19T17:28:25;11.90;99.90
28159;DHT22;15447;50.828;4.406;2023-11-19T17:30:51;11.90;99.90
28159;DHT22;15447;50.828;4.406;2023-11-19T17:33:17;11.90;99.90
28159;DHT22;15447;50.828;4.406;2023-11-19T17:35:43;11.90;99.90
28159;DHT22;15447;50.828;4.406;2023-11-19T17:38:09;11.90;99.90
28159;DHT22;15447;50.828;4.406;2023-11-19T17:40:34;12.00;99.90
28159;DHT22;15447;50.828;4.406;2023-11-19T17:43:00;12.00;99.90
28159;DHT22;15447;50.828;4.406;2023-11-19T17:45:26;12.00;99.90
28159;DHT22;15447;50.828;4.406;2023-11-19T17:47:54;11.90;99.90
28159;DHT22;15447;50.828;4.406;2023-11-19T17:50:20;11.90;99.90
28159;DHT22;15447;50.828;4.406;2023-11-19T17:52:46;11.80;99.90
28159;DHT22;15447;50.828;4.406;2023-11-19T17:55:12;11.80;99.90
28159;DHT22;15447;50.828;4.406;2023-11-19T17:57:41;11.80;99.90
28159;DHT22;15447;50.828;4.406;2023-11-19T18:00:08;11.80;99.90
28159;DHT22;15447;50.828;4.406;2023-11-19T18:02:39;11.80;99.90
28159;DHT22;15447;50.828;4.406;2023-11-19T18:05:08;11.70;99.90
28159;DHT22;15447;50.828;4.406;2023-11-19T18:07:34;11.70;99.90
28159;DHT22;15447;50.828;4.406;2023-11-19T18:10:00;11.60;99.90
28159;DHT22;15447;50.828;4.406;2023-11-19T18:12:25;11.70;99.90
28159;DHT22;15447;50.828;4.406;2023-11-19T18:14:53;11.80;99.90
28159;DHT22;15447;50.828;4.406;2023-11-19T18:17:19;11.90;99.90
28159;DHT22;15447;50.828;4.406;2023-11-19T18:19:44;11.90;99.90
28159;DHT22;15447;50.828;4.406;2023-11-19T18:22:10;11.90;99.90
28159;DHT22;15447;50.828;4.406;2023-11-19T18:24:36;12.00;99.90
28159;DHT22;15447;50.828;4.406;2023-11-19T18:27:03;12.00;99.90
28159;DHT22;15447;50.828;4.406;2023-11-19T18:29:28;12.00;99.90
28159;DHT22;15447;50.828;4.406;2023-11-19T18:31:54;12.10;99.90
28159;DHT22;15447;50.828;4.406;2023-11-19T18:34:20;12.10;99.90
28159;DHT22;15447;50.828;4.406;2023-11-19T18:36:48;12.00;99.90
28159;DHT22;15447;50.828;4.406;2023-11-19T18:39:13;12.00;99.90
28159;DHT22;15447;50.828;4.406;2023-11-19T18:41:39;12.10;99.90
28159;DHT22;15447;50.828;4.406;2023-11-19T18:44:07;12.10;99.90
28159;DHT22;15447;50.828;4.406;2023-11-19T18:46:33;12.10;99.90
28159;DHT22;15447;50.828;4.406;2023-11-19T18:48:59;12.10;99.90
28159;DHT22;15447;50.828;4.406;2023-11-19T18:51:25;12.00;99.90
28159;DHT22;15447;50.828;4.406;2023-11-19T18:53:51;12.00;99.90
28159;DHT22;15447;50.828;4.406;2023-11-19T18:56:17;11.90;99.90
28159;DHT22;15447;50.828;4.406;2023-11-19T18:58:43;11.90;99.90
28159;DHT22;15447;50.828;4.406;2023-11-19T19:01:10;11.90;99.90
28159;DHT22;15447;50.828;4.406;2023-11-19T19:03:38;12.00;99.90
28159;DHT22;15447;50.828;4.406;2023-11-19T19:06:04;12.00;99.90
28159;DHT22;15447;50.828;4.406;2023-11-19T19:08:30;12.00;99.90
28159;DHT22;15447;50.828;4.406;2023-11-19T19:10:58;12.00;99.90
28159;DHT22;15447;50.828;4.406;2023-11-19T19:13:24;12.00;99.90
28159;DHT22;15447;50.828;4.406;2023-11-19T19:15:50;12.00;99.90
28159;DHT22;15447;50.828;4.406;2023-11-19T19:18:16;11.90;99.90
28159;DHT22;15447;50.828;4.406;2023-11-19T19:20:43;11.90;99.90
28159;DHT22;15447;50.828;4.406;2023-11-19T19:23:09;11.90;99.90
28159;DHT22;15447;50.828;4.406;2023-11-19T19:25:35;11.80;99.90
28159;DHT22;15447;50.828;4.406;2023-11-19T19:28:01;11.80;99.90
28159;DHT22;15447;50.828;4.406;2023-11-19T19:30:26;11.80;99.90
28159;DHT22;15447;50.828;4.406;2023-11-19T19:32:52;11.80;99.90
28159;DHT22;15447;50.828;4.406;2023-11-19T19:35:19;11.80;99.90
28159;DHT22;15447;50.828;4.406;2023-11-19T19:37:46;11.90;99.90
28159;DHT22;15447;50.828;4.406;2023-11-19T19:40:12;11.90;99.90
28159;DHT22;15447;50.828;4.406;2023-11-19T19:42:41;11.80;99.90
28159;DHT22;15447;50.828;4.406;2023-11-19T19:45:07;11.80;99.90
28159;DHT22;15447;50.828;4.406;2023-11-19T19:47:35;11.80;99.90
28159;DHT22;15447;50.828;4.406;2023-11-19T19:50:03;11.80;99.90
28159;DHT22;15447;50.828;4.406;2023-11-19T19:52:29;11.80;99.90
28159;DHT22;15447;50.828;4.406;2023-11-19T19:54:57;11.80;99.90
28159;DHT22;15447;50.828;4.406;2023-11-19T19:57:23;11.80;99.90
28159;DHT22;15447;50.828;4.406;2023-11-19T19:59:49;11.80;99.90
28159;DHT22;15447;50.828;4.406;2023-11-19T20:02:15;11.80;99.90
28159;DHT22;15447;50.828;4.406;2023-11-19T20:04:40;11.90;99.90
28159;DHT22;15447;50.828;4.406;2023-11-19T20:07:08;12.00;99.90
28159;DHT22;15447;50.828;4.406;2023-11-19T20:09:35;12.00;99.90
28159;DHT22;15447;50.828;4.406;2023-11-19T20:12:01;12.10;99.90
28159;DHT22;15447;50.828;4.406;2023-11-19T20:14:27;12.10;99.90
28159;DHT22;15447;50.828;4.406;2023-11-19T20:16:55;12.00;99.90
28159;DHT22;15447;50.828;4.406;2023-11-19T20:19:21;12.00;99.90
28159;DHT22;15447;50.828;4.406;2023-11-19T20:21:47;12.00;99.90
28159;DHT22;15447;50.828;4.406;2023-11-19T20:24:13;11.90;99.90
28159;DHT22;15447;50.828;4.406;2023-11-19T20:26:39;11.90;99.90
28159;DHT22;15447;50.828;4.406;2023-11-19T20:29:06;12.00;99.90
28159;DHT22;15447;50.828;4.406;2023-11-19T20:31:32;12.00;99.90
28159;DHT22;15447;50.828;4.406;2023-11-19T20:33:57;12.00;99.90
28159;DHT22;15447;50.828;4.406;2023-11-19T20:36:23;12.10;99.90
28159;DHT22;15447;50.828;4.406;2023-11-19T20:38:48;12.10;99.90
28159;DHT22;15447;50.828;4.406;2023-11-19T20:41:17;12.00;99.90
28159;DHT22;15447;50.828;4.406;2023-11-19T20:43:44;12.00;99.90
28159;DHT22;15447;50.828;4.406;2023-11-19T20:46:11;12.00;99.90
28159;DHT22;15447;50.828;4.406;2023-11-19T20:48:37;12.00;99.90
28159;DHT22;15447;50.828;4.406;2023-11-19T20:51:03;11.90;99.90
28159;DHT22;15447;50.828;4.406;2023-11-19T20:53:28;11.90;99.90
28159;DHT22;15447;50.828;4.406;2023-11-19T20:55:54;11.80;99.90
28159;DHT22;15447;50.828;4.406;2023-11-19T20:58:20;11.80;99.90
28159;DHT22;15447;50.828;4.406;2023-11-19T21:00:46;11.80;99.90
28159;DHT22;15447;50.828;4.406;2023-11-19T21:03:12;11.80;99.90
28159;DHT22;15447;50.828;4.406;2023-11-19T21:05:40;11.80;99.90
28159;DHT22;15447;50.828;4.406;2023-11-19T21:08:06;11.80;99.90
28159;DHT22;15447;50.828;4.406;2023-11-19T21:10:32;11.80;99.90
28159;DHT22;15447;50.828;4.406;2023-11-19T21:12:57;11.70;99.90
28159;DHT22;15447;50.828;4.406;2023-11-19T21:15:24;11.60;99.90
28159;DHT22;15447;50.828;4.406;2023-11-19T21:17:49;11.60;99.90
28159;DHT22;15447;50.828;4.406;2023-11-19T21:20:16;11.80;99.90
28159;DHT22;15447;50.828;4.406;2023-11-19T21:22:42;11.70;99.90
28159;DHT22;15447;50.828;4.406;2023-11-19T21:25:08;11.70;99.90
28159;DHT22;15447;50.828;4.406;2023-11-19T21:27:37;11.70;99.90
28159;DHT22;15447;50.828;4.406;2023-11-19T21:30:03;11.70;99.90
28159;DHT22;15447;50.828;4.406;2023-11-19T21:32:30;11.70;99.90
28159;DHT22;15447;50.828;4.406;2023-11-19T21:34:55;11.70;99.90
28159;DHT22;15447;50.828;4.406;2023-11-19T21:37:21;11.70;99.90
28159;DHT22;15447;50.828;4.406;2023-11-19T21:39:47;11.70;99.90
28159;DHT22;15447;50.828;4.406;2023-11-19T21:42:12;11.70;99.90
28159;DHT22;15447;50.828;4.406;2023-11-19T21:44:38;11.70;99.90
28159;DHT22;15447;50.828;4.406;2023-11-19T21:47:04;11.70;99.90
28159;DHT22;15447;50.828;4.406;2023-11-19T21:49:30;11.70;99.90
28159;DHT22;15447;50.828;4.406;2023-11-19T21:51:55;11.70;99.90
28159;DHT22;15447;50.828;4.406;2023-11-19T21:54:21;11.60;99.90
28159;DHT22;15447;50.828;4.406;2023-11-19T21:56:47;11.60;99.90
28159;DHT22;15447;50.828;4.406;2023-11-19T21:59:13;11.60;99.90
28159;DHT22;15447;50.828;4.406;2023-11-19T22:01:41;11.60;99.90
28159;DHT22;15447;50.828;4.406;2023-11-19T22:04:06;11.60;99.90
28159;DHT22;15447;50.828;4.406;2023-11-19T22:06:32;11.60;99.90
28159;DHT22;15447;50.828;4.406;2023-11-19T22:09:26;11.50;99.90
28159;DHT22;15447;50.828;4.406;2023-11-19T22:12:03;11.50;99.90
28159;DHT22;15447;50.828;4.406;2023-11-19T22:14:28;11.50;99.90
28159;DHT22;15447;50.828;4.406;2023-11-19T22:16:54;11.60;99.90